Time;durP1;ratioP1;P1;durP2;ratioP2;P2;SDS_P1;SDS_P2;PMS_P1;PMS_P2;Temp;Humidity;BMP_temperature;BMP_pressure;BME280_temperature;BME280_humidity;BME280_pressure;Samples;Min_cycle;Max_cycle;Signal;HPM_P1;HPM_P2
2021/11/05 00:00:23;;;;;;;;;;;;;;;19.57;67.10;100832.38;4983703;28;1675;-40
2021/11/05 00:02:57;;;;;;;;;;;;;;;19.56;66.92;100839.59;4983806;28;1455;-39
2021/11/05 00:05:28;;;;;;;;;;;;;;;19.55;67.14;100829.84;4990884;28;2159;-39
2021/11/05 00:07:58;;;;;;;;;;;;;;;19.57;67.11;100824.34;4984777;28;1973;-39
2021/11/05 00:10:32;;;;;;;;;;;;;;;19.53;67.30;100830.97;4977977;28;1414;-39
2021/11/05 00:12:59;;;;;;;;;;;;;;;19.58;66.82;100834.94;4977397;28;1907;-39
2021/11/05 00:15:26;;;;;;;;;;;;;;;19.56;67.02;100828.84;4984006;28;1616;-39
2021/11/05 00:17:55;;;;;;;;;;;;;;;19.53;66.89;100807.66;4993272;28;1704;-40
2021/11/05 00:20:23;;;;;;;;;;;;;;;19.59;66.81;100817.84;4996702;28;1079;-40
2021/11/05 00:22:52;;;;;;;;;;;;;;;19.57;66.44;100808.25;4983309;28;1952;-40
2021/11/05 00:25:19;;;;;;;;;;;;;;;19.56;66.50;100811.94;4992199;28;1834;-40
2021/11/05 00:27:49;;;;;;;;;;;;;;;19.55;66.39;100815.56;4987960;28;1817;-39
2021/11/05 00:30:16;;;;;;;;;;;;;;;19.48;67.05;100829.53;4981159;28;1641;-40
2021/11/05 00:32:45;;;;;;;;;;;;;;;19.50;67.27;100825.84;4994356;28;1906;-39
2021/11/05 00:35:20;;;;;;;;;;;;;;;19.46;66.86;100826.16;4996480;28;1061;-39
2021/11/05 00:37:46;;;;;;;;;;;;;;;19.50;66.33;100818.69;4988141;28;1979;-40
2021/11/05 00:40:15;;;;;;;;;;;;;;;19.54;67.16;100840.72;4980647;28;1903;-39
2021/11/05 00:42:42;;;;;;;;;;;;;;;19.50;66.91;100817.81;4978518;28;1764;-40
2021/11/05 00:45:13;;;;;;;;;;;;;;;19.48;67.57;100837.59;4990431;28;1758;-40
2021/11/05 00:47:43;;;;;;;;;;;;;;;19.48;67.28;100842.13;4989891;28;1588;-40
2021/11/05 00:50:13;;;;;;;;;;;;;;;19.51;67.12;100832.94;4989307;28;1139;-40
2021/11/05 00:52:45;;;;;;;;;;;;;;;19.49;67.64;100838.44;4977968;28;1945;-40
2021/11/05 00:55:14;;;;;;;;;;;;;;;19.49;66.33;100830.38;4982484;28;1850;-40
2021/11/05 00:57:44;;;;;;;;;;;;;;;19.48;66.20;100844.78;4981903;28;1659;-40
2021/11/05 01:00:13;;;;;;;;;;;;;;;19.47;66.52;100843.91;4975684;28;2153;-40
2021/11/05 01:02:43;;;;;;;;;;;;;;;19.45;66.37;100831.66;4982455;28;1367;-40
2021/11/05 01:05:13;;;;;;;;;;;;;;;19.46;66.24;100839.56;4991656;28;1732;-39
2021/11/05 01:07:45;;;;;;;;;;;;;;;19.52;66.34;100848.03;4991350;28;1697;-39
2021/11/05 01:10:11;;;;;;;;;;;;;;;19.44;66.34;100828.13;4982482;28;1571;-40
2021/11/05 01:12:41;;;;;;;;;;;;;;;19.48;66.96;100832.22;4991176;28;1887;-40
2021/11/05 01:15:17;;;;;;;;;;;;;;;19.48;65.61;100834.91;4981808;28;1718;-40
2021/11/05 01:17:46;;;;;;;;;;;;;;;19.50;66.01;100828.53;4984076;28;1784;-39
2021/11/05 01:20:29;;;;;;;;;;;;;;;19.48;66.09;100856.38;4995260;28;1088;-40
2021/11/05 01:23:04;;;;;;;;;;;;;;;19.46;65.74;100847.59;4987296;28;1913;-39
2021/11/05 01:25:30;;;;;;;;;;;;;;;19.48;65.64;100850.16;4979588;28;1400;-40
2021/11/05 01:27:58;;;;;;;;;;;;;;;19.46;65.29;100836.88;4984123;28;1961;-39
2021/11/05 01:30:27;;;;;;;;;;;;;;;19.44;65.64;100841.53;4984688;28;1815;-40
2021/11/05 01:33:06;;;;;;;;;;;;;;;19.46;65.21;100839.56;4991083;28;1971;-39
2021/11/05 01:35:36;;;;;;;;;;;;;;;19.44;66.16;100848.72;4995383;28;1004;-39
2021/11/05 01:38:08;;;;;;;;;;;;;;;19.47;66.24;100843.91;4985745;28;1971;-40
2021/11/05 01:40:37;;;;;;;;;;;;;;;19.50;66.11;100847.31;4984425;28;1367;-39
2021/11/05 01:43:14;;;;;;;;;;;;;;;19.53;65.87;100828.28;4984464;28;1485;-39
2021/11/05 01:45:47;;;;;;;;;;;;;;;19.45;66.36;100827.13;4983370;28;1617;-40
2021/11/05 01:48:18;;;;;;;;;;;;;;;19.48;66.17;100842.13;4982677;28;1665;-40
2021/11/05 01:50:47;;;;;;;;;;;;;;;19.46;64.85;100823.47;4986368;28;1681;-40
2021/11/05 01:53:17;;;;;;;;;;;;;;;19.49;65.57;100843.78;4986244;28;1917;-40
2021/11/05 01:55:45;;;;;;;;;;;;;;;19.48;64.95;100836.75;4992439;28;1858;-40
2021/11/05 01:58:13;;;;;;;;;;;;;;;19.45;65.84;100842.38;4985635;28;1549;-40
2021/11/05 02:00:44;;;;;;;;;;;;;;;19.42;66.05;100832.78;4986630;28;1525;-39
2021/11/05 02:03:14;;;;;;;;;;;;;;;19.74;62.77;100828.22;4985641;28;1913;-40
2021/11/05 02:05:45;;;;;;;;;;;;;;;20.25;61.60;100833.34;4987937;28;1557;-39
2021/11/05 02:08:13;;;;;;;;;;;;;;;20.12;63.24;100840.81;4978126;28;1433;-39
2021/11/05 02:10:46;;;;;;;;;;;;;;;19.84;64.41;100823.72;4986553;28;2096;-39
2021/11/05 02:13:13;;;;;;;;;;;;;;;19.93;64.16;100824.69;4989588;28;1983;-40
2021/11/05 02:15:40;;;;;;;;;;;;;;;19.91;63.66;100826.69;4981283;28;1764;-40
2021/11/05 02:18:08;;;;;;;;;;;;;;;19.94;64.42;100821.03;4978634;28;1952;-39
2021/11/05 02:20:38;;;;;;;;;;;;;;;19.80;64.62;100828.50;4974806;28;1084;-40
2021/11/05 02:23:09;;;;;;;;;;;;;;;19.84;64.22;100827.25;4978343;28;1800;-39
2021/11/05 02:25:44;;;;;;;;;;;;;;;20.32;62.91;100827.41;4975521;28;1660;-40
2021/11/05 02:28:10;;;;;;;;;;;;;;;20.34;63.40;100830.78;4978003;28;1461;-40
2021/11/05 02:30:39;;;;;;;;;;;;;;;19.93;64.56;100819.34;4978098;28;1806;-39
2021/11/05 02:33:09;;;;;;;;;;;;;;;20.06;63.28;100810.00;4985185;28;2036;-40
2021/11/05 02:35:36;;;;;;;;;;;;;;;20.48;61.56;100808.00;4994415;28;1072;-39
2021/11/05 02:38:10;;;;;;;;;;;;;;;20.37;62.43;100827.81;4983352;28;1887;-40
2021/11/05 02:40:39;;;;;;;;;;;;;;;20.10;64.50;100832.06;4983260;28;2061;-40
2021/11/05 02:43:08;;;;;;;;;;;;;;;20.17;62.24;100822.44;4988170;28;1899;-40
2021/11/05 02:45:34;;;;;;;;;;;;;;;20.45;62.42;100826.09;4977113;28;1974;-40
2021/11/05 02:48:04;;;;;;;;;;;;;;;20.20;63.83;100824.84;4989289;28;1578;-40
2021/11/05 02:50:34;;;;;;;;;;;;;;;20.13;64.43;100837.13;4974871;28;1043;-39
2021/11/05 02:53:03;;;;;;;;;;;;;;;20.19;62.00;100820.50;4988143;28;1969;-39
2021/11/05 02:55:32;;;;;;;;;;;;;;;20.54;61.51;100808.28;4992350;28;1380;-40
2021/11/05 02:58:02;;;;;;;;;;;;;;;20.30;63.00;100827.53;4985794;28;1465;-40
2021/11/05 03:03:06;;;;;;;;;;;;;;;20.18;63.28;100836.72;4972444;28;1680;-40
2021/11/05 03:05:45;;;;;;;;;;;;;;;20.46;62.34;100826.94;4978087;28;1663;-40
2021/11/05 03:08:20;;;;;;;;;;;;;;;20.21;62.70;100839.13;4978026;28;1770;-40
2021/11/05 03:11:01;;;;;;;;;;;;;;;20.08;64.32;100839.41;4973645;28;1503;-40
2021/11/05 03:13:33;;;;;;;;;;;;;;;20.26;62.34;100837.69;4989455;28;1971;-40
2021/11/05 03:16:03;;;;;;;;;;;;;;;20.53;61.36;100824.53;4986312;28;1701;-40
2021/11/05 03:18:39;;;;;;;;;;;;;;;20.21;63.38;100834.63;4984373;28;1852;-41
2021/11/05 03:21:06;;;;;;;;;;;;;;;20.11;62.91;100843.63;4988353;28;1967;-40
2021/11/05 03:23:32;;;;;;;;;;;;;;;20.21;61.54;100840.00;4990242;28;1481;-40
2021/11/05 03:26:20;;;;;;;;;;;;;;;20.59;62.28;100840.09;4986407;28;1510;-40
2021/11/05 03:28:50;;;;;;;;;;;;;;;20.19;62.81;100824.97;4991211;28;1120;-40
2021/11/05 03:31:19;;;;;;;;;;;;;;;20.10;63.98;100831.22;4990005;28;1628;-40
2021/11/05 03:33:49;;;;;;;;;;;;;;;20.25;62.80;100835.16;4985124;28;1977;-40
2021/11/05 03:36:19;;;;;;;;;;;;;;;20.53;62.57;100843.31;4980700;28;1600;-40
2021/11/05 03:38:46;;;;;;;;;;;;;;;20.21;63.86;100833.75;4996182;28;1675;-40
2021/11/05 03:41:12;;;;;;;;;;;;;;;20.08;63.39;100833.19;4986717;28;2096;-40
2021/11/05 03:43:40;;;;;;;;;;;;;;;20.21;61.52;100833.75;4992951;28;1636;-40
2021/11/05 03:46:08;;;;;;;;;;;;;;;20.60;60.75;100834.59;4987335;28;1494;-40
2021/11/05 03:48:39;;;;;;;;;;;;;;;20.29;63.13;100833.03;4991175;28;1704;-40
2021/11/05 03:51:05;;;;;;;;;;;;;;;20.04;62.46;100828.09;4987225;28;1297;-40
2021/11/05 03:53:32;;;;;;;;;;;;;;;20.07;62.25;100829.66;4986568;28;1918;-40
2021/11/05 03:55:58;;;;;;;;;;;;;;;20.43;61.16;100821.84;4991144;28;1497;-40
2021/11/05 03:58:25;;;;;;;;;;;;;;;20.49;61.67;100834.72;4992600;28;1823;-40
2021/11/05 04:00:51;;;;;;;;;;;;;;;20.13;63.83;100831.75;4987979;28;1982;-40
2021/11/05 04:03:20;;;;;;;;;;;;;;;20.07;62.76;100826.97;4985688;28;1685;-40
2021/11/05 04:05:46;;;;;;;;;;;;;;;20.40;62.10;100811.41;4994992;28;1633;-40
2021/11/05 04:08:13;;;;;;;;;;;;;;;20.57;61.76;100831.31;4983021;28;1753;-40
2021/11/05 04:10:39;;;;;;;;;;;;;;;20.20;63.18;100810.59;4989310;28;2048;-40
2021/11/05 04:13:06;;;;;;;;;;;;;;;20.05;63.37;100819.06;4982297;28;1898;-40
2021/11/05 04:15:33;;;;;;;;;;;;;;;20.18;62.12;100818.78;4983482;28;1833;-40
2021/11/05 04:17:59;;;;;;;;;;;;;;;20.32;63.35;100819.34;4985854;28;1406;-40
2021/11/05 04:20:27;;;;;;;;;;;;;;;20.09;63.51;100802.66;4991082;28;2189;-40
2021/11/05 04:22:54;;;;;;;;;;;;;;;19.90;63.51;100819.63;4983155;28;2171;-40
2021/11/05 04:25:20;;;;;;;;;;;;;;;20.15;63.41;100819.03;4991283;28;1614;-40
2021/11/05 04:27:47;;;;;;;;;;;;;;;20.21;63.58;100818.50;4982895;28;1618;-40
2021/11/05 04:30:14;;;;;;;;;;;;;;;19.94;63.99;100813.00;4984994;28;1837;-40
2021/11/05 04:32:41;;;;;;;;;;;;;;;19.93;64.04;100825.53;4986321;28;1890;-40
2021/11/05 04:35:08;;;;;;;;;;;;;;;20.18;63.73;100812.56;4986588;28;1157;-40
2021/11/05 04:37:35;;;;;;;;;;;;;;;20.22;63.87;100804.06;4986177;28;1708;-40
2021/11/05 04:40:02;;;;;;;;;;;;;;;19.89;65.19;100817.91;4988209;28;1568;-40
2021/11/05 04:42:28;;;;;;;;;;;;;;;19.92;64.55;100806.91;4983941;28;1761;-40
2021/11/05 04:44:55;;;;;;;;;;;;;;;20.29;63.66;100830.34;4991928;28;1519;-40
2021/11/05 04:47:21;;;;;;;;;;;;;;;20.17;64.71;100827.81;4991466;28;1471;-40
2021/11/05 04:49:48;;;;;;;;;;;;;;;19.99;64.59;100829.50;4988266;28;3969;-39
2021/11/05 04:52:14;;;;;;;;;;;;;;;20.05;64.88;100824.44;4988159;28;2108;-40
2021/11/05 04:54:42;;;;;;;;;;;;;;;20.30;64.07;100826.69;4981192;28;1979;-40
2021/11/05 04:57:09;;;;;;;;;;;;;;;20.17;64.33;100824.28;4982069;28;1738;-40
2021/11/05 04:59:37;;;;;;;;;;;;;;;19.94;65.58;100821.03;4991414;28;1765;-40
2021/11/05 05:02:04;;;;;;;;;;;;;;;20.05;65.61;100823.56;4986263;28;11794;-40
2021/11/05 05:04:30;;;;;;;;;;;;;;;20.30;64.15;100821.31;4985879;28;1150;-39
2021/11/05 05:06:57;;;;;;;;;;;;;;;20.10;64.97;100832.06;4989370;28;1372;-40
2021/11/05 05:09:23;;;;;;;;;;;;;;;19.93;65.94;100824.69;4986657;28;1070;-40
2021/11/05 05:11:51;;;;;;;;;;;;;;;19.97;65.83;100820.75;4985330;28;1296;-40
2021/11/05 05:14:18;;;;;;;;;;;;;;;20.27;64.95;100827.81;4991018;28;2041;-40
2021/11/05 05:16:44;;;;;;;;;;;;;;;20.36;64.59;100832.34;4982280;28;1517;-40
2021/11/05 05:19:11;;;;;;;;;;;;;;;20.14;64.97;100830.78;4985712;28;1011;-40
2021/11/05 05:21:37;;;;;;;;;;;;;;;20.15;65.45;100829.78;4990157;28;1878;-39
2021/11/05 05:24:04;;;;;;;;;;;;;;;20.26;65.75;100829.66;4983762;28;1610;-40
2021/11/05 05:26:31;;;;;;;;;;;;;;;20.09;66.30;100833.03;4985690;28;1674;-40
2021/11/05 05:28:59;;;;;;;;;;;;;;;19.81;67.19;100835.56;4980933;28;1476;-40
2021/11/05 05:31:25;;;;;;;;;;;;;;;19.98;65.93;100839.41;4988087;28;1527;-40
2021/11/05 05:33:51;;;;;;;;;;;;;;;20.24;66.00;100845.06;4982461;28;1914;-40
2021/11/05 05:36:18;;;;;;;;;;;;;;;19.99;66.66;100824.13;4990539;28;1936;-39
2021/11/05 05:38:44;;;;;;;;;;;;;;;19.75;66.58;100841.47;4984906;28;1604;-40
2021/11/05 05:41:11;;;;;;;;;;;;;;;20.01;65.75;100838.25;4984333;28;1765;-39
2021/11/05 05:43:37;;;;;;;;;;;;;;;20.20;65.54;100840.97;4987657;28;1793;-40
2021/11/05 05:46:05;;;;;;;;;;;;;;;20.00;66.58;100840.09;4983897;28;1808;-40
2021/11/05 05:48:32;;;;;;;;;;;;;;;19.81;66.66;100845.44;4983359;28;1694;-40
2021/11/05 05:50:58;;;;;;;;;;;;;;;20.03;65.53;100844.34;4987304;28;2059;-40
2021/11/05 05:53:25;;;;;;;;;;;;;;;20.17;66.48;100851.97;4987316;28;1906;-40
2021/11/05 05:55:51;;;;;;;;;;;;;;;19.97;66.88;100847.59;4986939;28;1749;-40
2021/11/05 05:58:18;;;;;;;;;;;;;;;19.82;66.43;100849.84;4987658;28;1691;-40
2021/11/05 06:00:44;;;;;;;;;;;;;;;20.05;65.69;100861.16;4973969;28;1721;-40
2021/11/05 06:03:12;;;;;;;;;;;;;;;20.26;65.49;100858.34;5010800;28;1519;-40
2021/11/05 06:05:39;;;;;;;;;;;;;;;20.07;65.53;100859.19;5020772;28;1319;-40
2021/11/05 06:08:06;;;;;;;;;;;;;;;19.93;65.92;100854.22;5020561;28;1930;-40
2021/11/05 06:10:32;;;;;;;;;;;;;;;20.16;65.40;100852.97;5028374;28;1944;-41
2021/11/05 06:12:59;;;;;;;;;;;;;;;20.29;65.80;100855.38;5028888;28;1979;-40
2021/11/05 06:15:25;;;;;;;;;;;;;;;20.02;66.65;100861.44;5029030;28;1775;-40
2021/11/05 06:18:00;;;;;;;;;;;;;;;19.84;66.38;100858.59;5018627;28;1485;-40
2021/11/05 06:20:28;;;;;;;;;;;;;;;20.17;66.48;100854.66;5032028;28;1832;-40
2021/11/05 06:22:54;;;;;;;;;;;;;;;20.37;65.40;100839.41;5025232;28;1956;-40
2021/11/05 06:25:21;;;;;;;;;;;;;;;20.13;66.46;100855.94;5027857;28;1557;-40
2021/11/05 06:27:48;;;;;;;;;;;;;;;19.97;66.05;100853.78;5028181;28;1931;-40
2021/11/05 06:30:15;;;;;;;;;;;;;;;20.07;66.57;100848.44;5026141;28;1851;-40
2021/11/05 06:32:42;;;;;;;;;;;;;;;20.37;65.93;100862.72;5023151;28;1753;-39
2021/11/05 06:35:09;;;;;;;;;;;;;;;20.21;66.67;100856.09;5031581;28;1902;-40
2021/11/05 06:37:37;;;;;;;;;;;;;;;20.09;66.65;100872.47;5022513;28;1587;-40
2021/11/05 06:40:04;;;;;;;;;;;;;;;20.12;66.18;100856.94;5026872;28;1708;-40
2021/11/05 06:42:31;;;;;;;;;;;;;;;20.43;64.91;100856.78;5021220;28;1555;-40
2021/11/05 06:44:57;;;;;;;;;;;;;;;20.48;65.84;100840.25;5025927;28;1482;-40
2021/11/05 06:47:23;;;;;;;;;;;;;;;20.32;65.13;100851.56;5030232;28;1752;-41
2021/11/05 06:49:53;;;;;;;;;;;;;;;20.12;66.72;100840.81;5029533;28;1476;-40
2021/11/05 06:52:21;;;;;;;;;;;;;;;20.28;66.23;100853.69;5030561;28;1719;-40
2021/11/05 06:54:50;;;;;;;;;;;;;;;20.54;64.78;100843.19;5023872;28;1906;-40
2021/11/05 06:57:16;;;;;;;;;;;;;;;20.47;65.56;100839.38;5027699;28;1658;-39
2021/11/05 06:59:46;;;;;;;;;;;;;;;20.25;66.88;100862.88;5031300;28;1631;-40
2021/11/05 07:02:19;;;;;;;;;;;;;;;20.21;66.43;100845.34;5033125;28;1561;-39
2021/11/05 07:04:53;;;;;;;;;;;;;;;20.58;64.91;100846.44;5036502;28;994;-40
2021/11/05 07:07:23;;;;;;;;;;;;;;;20.71;64.65;100835.41;5035080;28;2113;-40
2021/11/05 07:09:58;;;;;;;;;;;;;;;20.68;65.67;100850.00;5035842;28;1769;-39
2021/11/05 07:12:31;;;;;;;;;;;;;;;20.43;65.75;100852.28;5037692;28;1631;-40
2021/11/05 07:14:58;;;;;;;;;;;;;;;20.39;66.58;100853.53;5033347;28;1903;-40
2021/11/05 07:17:25;;;;;;;;;;;;;;;20.74;64.95;100852.09;5033388;28;1756;-40
2021/11/05 07:19:51;;;;;;;;;;;;;;;20.77;65.11;100835.69;5035870;28;1779;-40
2021/11/05 07:22:18;;;;;;;;;;;;;;;20.66;66.07;100851.97;5032739;28;1686;-40
2021/11/05 07:24:45;;;;;;;;;;;;;;;20.60;66.08;100856.09;5032854;28;1661;-39
2021/11/05 07:27:17;;;;;;;;;;;;;;;20.58;67.06;100857.19;5031201;28;2253;-39
2021/11/05 07:29:44;;;;;;;;;;;;;;;20.71;65.98;100851.53;5022521;28;1810;-40
2021/11/05 07:32:10;;;;;;;;;;;;;;;21.05;64.33;100844.66;5034849;28;1670;-40
2021/11/05 07:34:40;;;;;;;;;;;;;;;21.00;65.18;100873.81;5031680;28;2006;-40
2021/11/05 07:37:14;;;;;;;;;;;;;;;20.77;66.41;100867.06;5033754;28;1680;-39
2021/11/05 07:39:41;;;;;;;;;;;;;;;20.59;66.54;100883.09;5032894;28;1524;-40
2021/11/05 07:42:08;;;;;;;;;;;;;;;20.53;67.51;100872.88;5034317;28;1764;-40
2021/11/05 07:44:40;;;;;;;;;;;;;;;20.70;67.46;100876.72;5030820;28;1530;-40
2021/11/05 07:47:08;;;;;;;;;;;;;;;21.17;65.70;100879.41;5030875;28;1921;-40
2021/11/05 07:49:35;;;;;;;;;;;;;;;20.95;66.51;100886.88;5032926;28;2070;-40
2021/11/05 07:52:03;;;;;;;;;;;;;;;20.76;66.22;100876.16;5026915;28;1616;-40
2021/11/05 07:57:14;;;;;;;;;;;;;;;20.59;68.02;100892.03;5027508;28;1724;-39
2021/11/05 07:59:45;;;;;;;;;;;;;;;20.56;67.49;100892.25;5026018;28;1714;-39
2021/11/05 08:02:21;;;;;;;;;;;;;;;20.65;67.26;100880.69;5033521;28;1640;-40
2021/11/05 08:04:50;;;;;;;;;;;;;;;21.10;66.05;100878.31;5023252;28;2006;-39
2021/11/05 08:07:20;;;;;;;;;;;;;;;21.41;64.38;100860.09;5028638;28;1564;-39
2021/11/05 08:09:47;;;;;;;;;;;;;;;21.22;65.72;100859.16;5033455;28;1655;-39
2021/11/05 08:12:16;;;;;;;;;;;;;;;21.08;65.58;100858.81;5033313;28;2076;-39
2021/11/05 08:14:47;;;;;;;;;;;;;;;20.93;66.71;100866.47;5029665;28;1902;-40
2021/11/05 08:17:17;;;;;;;;;;;;;;;20.70;66.19;100865.97;5033632;28;1613;-40
2021/11/05 08:19:44;;;;;;;;;;;;;;;20.58;67.26;100876.84;5023345;28;1733;-40
2021/11/05 08:22:10;;;;;;;;;;;;;;;20.61;67.04;100884.66;5034115;28;1953;-39
2021/11/05 08:24:37;;;;;;;;;;;;;;;21.17;64.86;100880.28;5031587;28;1815;-39
2021/11/05 08:27:03;;;;;;;;;;;;;;;21.21;65.39;100860.16;5032447;28;1926;-39
2021/11/05 08:29:30;;;;;;;;;;;;;;;21.03;65.72;100881.59;5023203;28;1571;-40
2021/11/05 08:31:58;;;;;;;;;;;;;;;20.88;65.77;100872.28;5032033;28;1933;-39
2021/11/05 08:34:25;;;;;;;;;;;;;;;20.69;66.64;100885.75;5034291;28;1910;-40
2021/11/05 08:36:51;;;;;;;;;;;;;;;20.61;67.41;100890.03;5031718;28;1707;-40
2021/11/05 08:39:17;;;;;;;;;;;;;;;20.61;67.43;100879.28;5035678;28;1123;-39
2021/11/05 08:41:44;;;;;;;;;;;;;;;20.74;66.15;100878.97;5030794;28;1668;-40
2021/11/05 08:44:11;;;;;;;;;;;;;;;20.82;65.79;100891.69;5031738;28;1611;-40
2021/11/05 08:46:38;;;;;;;;;;;;;;;20.78;66.19;100885.75;5024913;28;1873;-39
2021/11/05 08:49:15;;;;;;;;;;;;;;;20.80;66.00;100885.63;5031268;28;1901;-40
2021/11/05 08:51:56;;;;;;;;;;;;;;;20.70;66.90;100880.25;5031152;28;1612;-40
2021/11/05 08:54:27;;;;;;;;;;;;;;;20.75;66.90;100882.50;5022518;28;1906;-40
2021/11/05 08:56:56;;;;;;;;;;;;;;;20.72;66.34;100864.84;5016868;28;1438;-40
2021/11/05 08:59:38;;;;;;;;;;;;;;;20.76;66.37;100881.53;5031128;28;1557;-40
2021/11/05 09:02:05;;;;;;;;;;;;;;;20.72;66.53;100870.22;5030408;28;1805;-39
2021/11/05 09:04:33;;;;;;;;;;;;;;;20.69;66.93;100859.75;5034367;28;1731;-40
2021/11/05 09:07:00;;;;;;;;;;;;;;;20.65;66.55;100869.94;5027665;28;2225;-40
2021/11/05 09:09:26;;;;;;;;;;;;;;;20.55;67.02;100879.84;5028059;28;1681;-39
2021/11/05 09:11:53;;;;;;;;;;;;;;;20.49;67.16;100875.00;5032896;28;1341;-39
2021/11/05 09:14:20;;;;;;;;;;;;;;;20.44;67.39;100863.84;5033803;28;1959;-40
2021/11/05 09:16:47;;;;;;;;;;;;;;;20.48;67.45;100862.56;5031003;28;1823;-39
2021/11/05 09:19:14;;;;;;;;;;;;;;;20.59;66.68;100849.03;5030093;28;1599;-39
2021/11/05 09:21:42;;;;;;;;;;;;;;;20.62;66.33;100866.69;5030563;28;1894;-39
2021/11/05 09:24:08;;;;;;;;;;;;;;;20.50;67.22;100865.97;5032819;28;1573;-39
2021/11/05 09:26:35;;;;;;;;;;;;;;;20.35;67.11;100856.63;5031624;28;1676;-39
2021/11/05 09:29:01;;;;;;;;;;;;;;;20.30;66.86;100858.91;5023652;28;1445;-40
2021/11/05 09:31:27;;;;;;;;;;;;;;;20.30;67.37;100858.91;5031639;28;1802;-39
2021/11/05 09:33:55;;;;;;;;;;;;;;;20.26;67.31;100859.19;5028197;28;1964;-40
2021/11/05 09:36:21;;;;;;;;;;;;;;;20.30;66.06;100861.59;5031081;28;1951;-40
2021/11/05 09:38:49;;;;;;;;;;;;;;;20.30;66.53;100870.50;5034337;28;1182;-39
2021/11/05 09:41:16;;;;;;;;;;;;;;;20.27;66.46;100847.47;5024552;28;2000;-39
2021/11/05 09:43:43;;;;;;;;;;;;;;;20.33;66.98;100861.31;5024078;28;1725;-39
2021/11/05 09:46:10;;;;;;;;;;;;;;;20.30;67.17;100864.28;5023624;28;1570;-39
2021/11/05 09:48:38;;;;;;;;;;;;;;;20.32;66.85;100870.38;5024109;28;1808;-39
2021/11/05 09:51:18;;;;;;;;;;;;;;;20.31;65.71;100856.06;5025436;28;1484;-40
2021/11/05 09:53:44;;;;;;;;;;;;;;;20.31;66.77;100855.22;5023529;28;1621;-40
2021/11/05 09:56:13;;;;;;;;;;;;;;;20.40;66.09;100859.75;5020187;28;1899;-40
2021/11/05 09:58:41;;;;;;;;;;;;;;;20.29;66.66;100836.56;5025605;28;1007;-39
2021/11/05 10:01:08;;;;;;;;;;;;;;;20.30;66.21;100837.44;5020722;28;1884;-39
2021/11/05 10:03:35;;;;;;;;;;;;;;;20.25;66.63;100852.13;5020820;28;1939;-39
2021/11/05 10:06:02;;;;;;;;;;;;;;;20.27;65.54;100854.66;5032302;28;1510;-39
2021/11/05 10:08:29;;;;;;;;;;;;;;;20.33;65.50;100854.09;5022895;28;1077;-39
2021/11/05 10:10:55;;;;;;;;;;;;;;;20.30;65.59;100843.66;5026496;28;1705;-39
2021/11/05 10:13:26;;;;;;;;;;;;;;;20.26;66.32;100835.03;5029236;28;1004;-39
2021/11/05 10:15:54;;;;;;;;;;;;;;;20.21;66.35;100831.94;5021440;28;1883;-40
2021/11/05 10:18:23;;;;;;;;;;;;;;;20.24;65.58;100828.09;5022103;28;1850;-39
2021/11/05 10:21:05;;;;;;;;;;;;;;;20.24;65.33;100822.72;5014098;28;2147;-40
2021/11/05 10:23:35;;;;;;;;;;;;;;;20.25;64.99;100824.41;5022229;28;1763;-40
2021/11/05 10:26:02;;;;;;;;;;;;;;;20.18;65.29;100817.94;5022867;28;1589;-40
2021/11/05 10:28:30;;;;;;;;;;;;;;;20.15;65.93;100794.88;5026747;28;2091;-40
2021/11/05 10:30:58;;;;;;;;;;;;;;;20.13;66.46;100804.91;5019963;28;1791;-39
2021/11/05 10:33:28;;;;;;;;;;;;;;;20.18;66.14;100808.03;5018762;28;1932;-39
2021/11/05 10:35:55;;;;;;;;;;;;;;;20.16;65.29;100817.22;5031425;28;1961;-40
2021/11/05 10:38:22;;;;;;;;;;;;;;;20.15;66.43;100792.19;5022331;28;1071;-39
2021/11/05 10:40:50;;;;;;;;;;;;;;;20.16;66.11;100804.66;5027513;28;1985;-39
2021/11/05 10:43:18;;;;;;;;;;;;;;;20.17;65.93;100806.31;5023127;28;1512;-39
2021/11/05 10:45:47;;;;;;;;;;;;;;;20.16;66.27;100801.13;5022478;28;1827;-39
2021/11/05 10:48:16;;;;;;;;;;;;;;;20.17;66.25;100808.16;5021194;28;1687;-40
2021/11/05 10:50:49;;;;;;;;;;;;;;;20.16;65.58;100804.66;5024743;28;1065;-39
2021/11/05 10:53:17;;;;;;;;;;;;;;;20.13;66.37;100796.88;5021273;28;1964;-40
2021/11/05 10:55:45;;;;;;;;;;;;;;;20.14;65.31;100784.31;5021032;28;2122;-40
2021/11/05 10:58:15;;;;;;;;;;;;;;;20.15;66.48;100797.56;5018793;28;1908;-39
2021/11/05 11:00:42;;;;;;;;;;;;;;;20.09;65.08;100787.41;5023137;28;1849;-39
2021/11/05 11:03:21;;;;;;;;;;;;;;;20.09;66.23;100782.03;5025683;28;2142;-39
2021/11/05 11:05:47;;;;;;;;;;;;;;;20.12;65.97;100762.97;5033397;28;1049;-40
2021/11/05 11:08:24;;;;;;;;;;;;;;;20.07;66.25;100765.22;5029893;28;1482;-39
2021/11/05 11:10:51;;;;;;;;;;;;;;;20.08;65.91;100748.13;5026717;28;1862;-39
2021/11/05 11:13:34;;;;;;;;;;;;;;;20.10;66.09;100762.25;5028149;28;1084;-39
2021/11/05 11:16:01;;;;;;;;;;;;;;;20.04;64.99;100757.47;5021233;28;1906;-39
2021/11/05 11:18:29;;;;;;;;;;;;;;;20.10;66.24;100767.63;5020895;28;1928;-39
2021/11/05 11:20:56;;;;;;;;;;;;;;;20.06;65.74;100750.97;5032105;28;1776;-40
2021/11/05 11:23:22;;;;;;;;;;;;;;;20.10;65.22;100761.44;5021003;28;1084;-39
2021/11/05 11:25:49;;;;;;;;;;;;;;;20.05;65.91;100749.28;5021029;28;1935;-40
2021/11/05 11:28:16;;;;;;;;;;;;;;;20.09;66.07;100748.97;5020970;28;1633;-39
2021/11/05 11:30:42;;;;;;;;;;;;;;;20.08;65.13;100764.25;5018398;28;1949;-39
2021/11/05 11:33:09;;;;;;;;;;;;;;;20.04;66.04;100763.69;5022713;28;1798;-39
2021/11/05 11:35:37;;;;;;;;;;;;;;;20.04;65.45;100757.47;5028848;28;1973;-39
2021/11/05 11:38:04;;;;;;;;;;;;;;;20.00;66.00;100753.38;5019958;28;2070;-40
2021/11/05 11:40:31;;;;;;;;;;;;;;;20.02;65.89;100754.06;5028721;28;1392;-40
2021/11/05 11:42:57;;;;;;;;;;;;;;;19.98;66.43;100741.94;5021240;28;1652;-39
2021/11/05 11:45:24;;;;;;;;;;;;;;;19.99;66.43;100732.88;5023054;28;1808;-40
2021/11/05 11:47:53;;;;;;;;;;;;;;;19.95;65.98;100744.88;5025095;28;1498;-39
2021/11/05 11:50:21;;;;;;;;;;;;;;;19.98;66.06;100750.00;5027638;28;1007;-39
2021/11/05 11:52:58;;;;;;;;;;;;;;;19.93;65.92;100745.03;5025865;28;2560;-39
2021/11/05 11:55:24;;;;;;;;;;;;;;;19.95;65.17;100747.56;5021763;28;2007;-39
2021/11/05 11:58:08;;;;;;;;;;;;;;;19.97;65.59;100745.59;5025648;28;1666;-39
2021/11/05 12:00:34;;;;;;;;;;;;;;;19.93;65.39;100726.25;5034726;28;1693;-39
2021/11/05 12:03:02;;;;;;;;;;;;;;;19.94;65.46;100737.84;5023221;28;1520;-40
2021/11/05 12:05:36;;;;;;;;;;;;;;;19.97;65.68;100732.16;5031140;28;1831;-40
2021/11/05 12:08:33;;;;;;;;;;;;;;;19.94;65.82;100745.91;5023938;28;1860;-39
2021/11/05 12:11:17;;;;;;;;;;;;;;;19.93;65.32;100744.19;4994722;28;2882;-39
2021/11/05 12:13:46;;;;;;;;;;;;;;;19.97;65.17;100748.28;5032745;28;2147;-40
2021/11/05 12:16:18;;;;;;;;;;;;;;;19.90;65.44;100747.16;5027438;28;1914;-39
2021/11/05 12:19:03;;;;;;;;;;;;;;;19.89;65.34;100748.16;5027260;28;991;-39
2021/11/05 12:21:32;;;;;;;;;;;;;;;19.91;65.60;100724.69;5027789;28;1944;-39
2021/11/05 12:24:13;;;;;;;;;;;;;;;19.86;65.98;100728.66;5023851;28;1715;-39
2021/11/05 12:26:40;;;;;;;;;;;;;;;19.85;66.25;100736.84;5024791;28;2062;-39
2021/11/05 12:29:08;;;;;;;;;;;;;;;19.81;66.17;100738.94;5025845;28;1696;-39
2021/11/05 12:31:37;;;;;;;;;;;;;;;19.82;66.40;100732.59;5024783;28;1844;-39
2021/11/05 12:34:22;;;;;;;;;;;;;;;19.84;66.20;100719.91;5028100;28;1528;-39
2021/11/05 12:36:54;;;;;;;;;;;;;;;19.89;65.15;100738.25;5031323;28;2053;-39
2021/11/05 12:42:10;;;;;;;;;;;;;;;19.82;65.70;100727.25;5032850;28;1819;-40
2021/11/05 12:44:57;;;;;;;;;;;;;;;19.84;65.58;100716.38;5022152;28;1162;-39
2021/11/05 12:47:44;;;;;;;;;;;;;;;19.85;66.46;100710.84;5017653;28;1060;-39
2021/11/05 12:50:14;;;;;;;;;;;;;;;19.84;65.51;100725.25;5015806;28;1081;-39
2021/11/05 12:52:47;;;;;;;;;;;;;;;19.83;66.63;100706.63;5025723;28;2042;-39
2021/11/05 12:55:14;;;;;;;;;;;;;;;19.86;66.26;100723.28;5027023;28;1906;-39
2021/11/05 12:57:48;;;;;;;;;;;;;;;19.85;65.58;100720.75;5018471;28;1464;-39
2021/11/05 13:00:21;;;;;;;;;;;;;;;19.82;65.78;100711.16;5025729;28;1251;-39
2021/11/05 13:02:52;;;;;;;;;;;;;;;19.84;66.50;100719.91;5031364;28;1809;-39
2021/11/05 13:05:22;;;;;;;;;;;;;;;19.81;66.86;100720.16;5033061;28;1751;-40